Kezdőlap
METAR-TAF:

METAR-TAF

Repülőterek :

Dewar Lakes, Nunavut, Kanada

földrajzi szélesség: 68-39N, földrajzi hosszúság: 071-10W, magasság: 518 m

Jelenlegi meteorológiai megfigyelések

A jelentés 28 perccel ezelõtt készült, 04:00 UTC
Keleti szél 30 kt széllökések: 38 kt
Hőmérséklet -18°C
Páratartalom 84%
Légköri nyomás 997 hPa
Borult 200 lábon

METAR: CWUW 090400Z AUTO 08030G38KT ////SM OVC002 M18/M20 A2943

Idő: 23:28 (04:28 UTC)


TAF: hiányzik

Meteorológiai megfigyelések és előrejelzések több, mint 4000 repülőtéren (METAR és TAF jelentéseket).

A térképen piros és sárga pontok jelzik az elérhető meteorológiai állomásokat.

Mozgassa az egeret a pont fölött, hogy megjelenjen az állomás neve.

Azután kattintson az időjárási megfigyelések és előrejelzések megtekintéséhez.

A térkép megváltoztatása: kattintson a fekete keresztel jelölt zöld gombra ráközelítéshez, a vonallal jelölt zöld gombra távolításhoz, vagy a zöld nyilakra a szomszédos térképek eléréséhez.


METAR-TAF: